createdAt,value
2022-10-29T00:01:59.484Z,97.35
2022-10-29T00:04:25.969Z,96.96
2022-10-29T00:06:52.520Z,96.98
2022-10-29T00:09:19.022Z,96.98
2022-10-29T00:11:45.469Z,96.82
2022-10-29T00:14:11.973Z,96.88
2022-10-29T00:16:39.757Z,97.10
2022-10-29T00:19:06.796Z,97.15
2022-10-29T00:21:34.467Z,97.02
2022-10-29T00:24:01.329Z,97.04
2022-10-29T00:26:29.612Z,96.99
2022-10-29T00:28:56.563Z,97.00
2022-10-29T00:31:24.706Z,96.94
2022-10-29T00:33:52.888Z,96.76
2022-10-29T00:36:26.230Z,96.82
2022-10-29T00:38:53.168Z,97.02
2022-10-29T00:41:23.584Z,96.95
2022-10-29T00:43:52.852Z,97.01
2022-10-29T00:46:30.020Z,97.31
2022-10-29T00:48:58.675Z,97.39
2022-10-29T00:51:25.962Z,97.40
2022-10-29T00:54:00.861Z,97.13
2022-10-29T00:56:32.472Z,97.00
2022-10-29T00:58:59.341Z,96.91
2022-10-29T01:01:25.973Z,96.94
2022-10-29T01:03:54.245Z,96.88
2022-10-29T01:06:20.789Z,97.01
2022-10-29T01:08:47.240Z,97.20
2022-10-29T01:11:33.997Z,97.28
2022-10-29T01:14:28.367Z,97.14
2022-10-29T01:17:00.848Z,97.04
2022-10-29T01:19:46.092Z,96.89
2022-10-29T01:22:15.525Z,97.05
2022-10-29T01:25:10.712Z,97.25
2022-10-29T01:27:49.960Z,97.18
2022-10-29T01:30:20.153Z,97.32
2022-10-29T01:33:08.068Z,97.11
2022-10-29T01:36:03.877Z,97.01
2022-10-29T01:38:42.122Z,97.63
2022-10-29T01:41:30.065Z,97.36
2022-10-29T01:44:12.078Z,97.49
2022-10-29T01:46:49.828Z,97.59
2022-10-29T01:49:25.526Z,97.75
2022-10-29T01:51:52.617Z,97.60
2022-10-29T01:54:19.111Z,97.80
2022-10-29T01:56:54.108Z,97.78
2022-10-29T01:59:35.275Z,97.96
2022-10-29T02:02:24.055Z,97.61
2022-10-29T02:04:55.219Z,97.58
2022-10-29T02:07:54.455Z,97.87
2022-10-29T02:10:36.038Z,98.02
2022-10-29T02:13:02.670Z,97.71
2022-10-29T02:15:48.335Z,97.56
2022-10-29T02:18:16.092Z,97.58
2022-10-29T02:20:44.373Z,97.54
2022-10-29T02:23:11.037Z,97.38
2022-10-29T02:25:37.623Z,97.32
2022-10-29T02:28:04.498Z,97.37
2022-10-29T02:30:31.083Z,97.39
2022-10-29T02:32:57.917Z,97.48
2022-10-29T02:35:24.664Z,97.59
2022-10-29T02:37:51.240Z,97.47
2022-10-29T02:40:17.791Z,97.45
2022-10-29T02:42:44.278Z,97.38
2022-10-29T02:45:10.868Z,97.47
2022-10-29T02:47:37.322Z,97.33
2022-10-29T02:50:04.054Z,97.42
2022-10-29T02:52:30.514Z,97.53
2022-10-29T02:54:56.986Z,98.20
2022-10-29T02:57:23.465Z,98.36
2022-10-29T02:59:49.872Z,98.77
2022-10-29T03:02:16.506Z,98.96
2022-10-29T03:04:44.743Z,99.22
2022-10-29T03:07:11.269Z,98.98
2022-10-29T03:09:37.870Z,99.06
2022-10-29T03:12:04.462Z,99.02
2022-10-29T03:14:30.941Z,99.22
2022-10-29T03:16:57.484Z,99.05
2022-10-29T03:19:23.915Z,98.87
2022-10-29T03:21:50.457Z,99.13
2022-10-29T03:24:16.934Z,98.97
2022-10-29T03:26:43.467Z,99.42
2022-10-29T03:29:09.954Z,99.38
2022-10-29T03:31:36.451Z,99.50
2022-10-29T03:34:03.032Z,99.52
2022-10-29T03:36:29.999Z,99.47
2022-10-29T03:38:56.549Z,99.70
2022-10-29T03:41:22.975Z,99.61
2022-10-29T03:43:49.796Z,99.80
2022-10-29T03:46:16.245Z,99.81
2022-10-29T03:48:42.901Z,99.83
2022-10-29T03:51:10.512Z,99.82
2022-10-29T03:53:37.527Z,100.00
2022-10-29T03:56:04.382Z,99.97
2022-10-29T03:58:30.926Z,99.71
2022-10-29T04:00:58.820Z,99.86
2022-10-29T04:03:26.815Z,99.71
2022-10-29T04:05:54.328Z,99.89
2022-10-29T04:08:21.508Z,99.80
2022-10-29T04:10:49.390Z,99.82
2022-10-29T04:13:16.630Z,99.78
2022-10-29T04:15:43.289Z,99.65
2022-10-29T04:18:11.237Z,99.78
2022-10-29T04:20:59.738Z,99.71
2022-10-29T04:28:58.889Z,100.00
2022-10-29T04:31:25.446Z,99.84
2022-10-29T04:33:55.009Z,99.81
2022-10-29T04:36:21.494Z,100.00
2022-10-29T04:38:48.030Z,100.00
2022-10-29T04:41:14.585Z,100.00
2022-10-29T04:43:41.138Z,100.00
2022-10-29T04:46:07.629Z,100.00
2022-10-29T04:48:34.170Z,100.00
2022-10-29T04:51:00.659Z,100.00
2022-10-29T04:53:27.104Z,100.00
2022-10-29T04:56:03.476Z,100.00
2022-10-29T04:58:29.931Z,100.00
2022-10-29T05:01:05.100Z,100.00
2022-10-29T05:03:32.492Z,100.00
2022-10-29T05:06:01.828Z,100.00
2022-10-29T05:08:28.242Z,100.00
2022-10-29T05:10:54.983Z,99.99
2022-10-29T05:13:21.500Z,99.63
2022-10-29T05:15:53.221Z,100.00
2022-10-29T05:18:20.182Z,100.00
2022-10-29T05:20:46.775Z,100.00
2022-10-29T05:23:13.448Z,100.00
2022-10-29T05:25:41.419Z,100.00
2022-10-29T05:28:15.799Z,100.00
2022-10-29T05:30:43.867Z,100.00
2022-10-29T05:33:12.238Z,100.00
2022-10-29T05:35:38.748Z,100.00
2022-10-29T05:38:05.603Z,100.00
2022-10-29T05:40:33.004Z,100.00
2022-10-29T05:43:00.158Z,100.00
2022-10-29T05:45:27.178Z,100.00
2022-10-29T05:47:58.451Z,100.00
2022-10-29T05:50:25.749Z,100.00
2022-10-29T05:53:03.611Z,100.00
2022-10-29T05:55:31.792Z,100.00
2022-10-29T05:57:59.972Z,100.00
2022-10-29T06:00:28.501Z,100.00
2022-10-29T06:02:55.748Z,100.00
2022-10-29T06:05:23.272Z,100.00
2022-10-29T06:07:56.219Z,100.00
2022-10-29T06:10:24.368Z,100.00
2022-10-29T06:12:50.894Z,100.00
2022-10-29T06:15:17.934Z,100.00
2022-10-29T06:17:46.329Z,100.00
2022-10-29T06:20:15.168Z,100.00
2022-10-29T06:22:41.629Z,100.00
2022-10-29T06:25:08.495Z,100.00
2022-10-29T06:27:35.003Z,100.00
2022-10-29T06:30:01.579Z,100.00
2022-10-29T06:32:28.076Z,100.00
2022-10-29T06:34:54.519Z,100.00
2022-10-29T06:37:20.986Z,100.00
2022-10-29T06:39:47.515Z,100.00
2022-10-29T06:42:13.952Z,100.00
2022-10-29T06:44:40.538Z,100.00
2022-10-29T06:47:07.118Z,100.00
2022-10-29T06:49:33.559Z,100.00
2022-10-29T06:52:00.033Z,100.00
2022-10-29T06:54:26.510Z,100.00
2022-10-29T06:56:52.986Z,100.00
2022-10-29T06:59:19.475Z,100.00
2022-10-29T07:01:46.686Z,100.00
2022-10-29T07:04:13.358Z,100.00
2022-10-29T07:06:39.944Z,100.00
2022-10-29T07:09:06.430Z,100.00
2022-10-29T07:11:32.893Z,100.00
2022-10-29T07:13:59.404Z,100.00
2022-10-29T07:16:25.941Z,100.00
2022-10-29T07:18:53.928Z,100.00
2022-10-29T07:21:20.390Z,100.00
2022-10-29T07:23:46.868Z,100.00
2022-10-29T07:26:13.357Z,100.00
2022-10-29T07:28:39.874Z,100.00
2022-10-29T07:31:07.783Z,100.00
2022-10-29T07:33:34.512Z,100.00
2022-10-29T07:36:00.968Z,100.00
2022-10-29T07:38:27.673Z,100.00
2022-10-29T07:40:54.641Z,100.00
2022-10-29T07:43:22.708Z,100.00
2022-10-29T07:45:50.911Z,100.00
2022-10-29T07:48:18.120Z,100.00
2022-10-29T07:50:44.723Z,100.00
2022-10-29T07:53:12.713Z,100.00
2022-10-29T07:55:39.303Z,100.00
2022-10-29T07:58:09.871Z,100.00
2022-10-29T08:00:38.652Z,100.00
2022-10-29T08:03:05.667Z,100.00
2022-10-29T08:05:32.719Z,100.00
2022-10-29T08:07:59.864Z,100.00
2022-10-29T08:10:27.557Z,100.00
2022-10-29T08:12:56.530Z,100.00
2022-10-29T08:15:24.053Z,100.00
2022-10-29T08:17:51.397Z,100.00
2022-10-29T08:20:18.316Z,100.00
2022-10-29T08:22:44.782Z,100.00
2022-10-29T08:25:12.143Z,100.00
2022-10-29T08:27:39.071Z,100.00
2022-10-29T08:30:07.279Z,100.00
2022-10-29T08:32:33.645Z,100.00
2022-10-29T08:35:00.187Z,100.00
2022-10-29T08:37:26.856Z,100.00
2022-10-29T08:39:53.454Z,100.00
2022-10-29T08:42:40.202Z,100.00
2022-10-29T08:45:06.704Z,100.00
2022-10-29T08:47:59.855Z,100.00
2022-10-29T08:50:41.262Z,100.00
2022-10-29T08:53:23.175Z,100.00
2022-10-29T08:55:50.652Z,100.00
2022-10-29T08:58:23.210Z,100.00
2022-10-29T09:00:54.664Z,100.00
2022-10-29T09:03:21.459Z,100.00
2022-10-29T09:05:59.936Z,100.00
2022-10-29T09:08:39.147Z,100.00
2022-10-29T09:11:36.244Z,100.00
2022-10-29T09:14:05.627Z,100.00
2022-10-29T09:16:51.936Z,100.00
2022-10-29T09:19:18.330Z,100.00
2022-10-29T09:21:52.524Z,100.00
2022-10-29T09:24:28.002Z,100.00
2022-10-29T09:27:11.007Z,100.00
2022-10-29T09:30:01.215Z,100.00
2022-10-29T09:32:56.886Z,100.00
2022-10-29T09:35:42.006Z,100.00
2022-10-29T09:38:17.344Z,100.00
2022-10-29T09:40:44.318Z,100.00
2022-10-29T09:43:35.284Z,100.00
2022-10-29T09:46:27.830Z,100.00
2022-10-29T09:49:13.418Z,100.00
2022-10-29T09:51:55.066Z,100.00
2022-10-29T09:54:25.259Z,99.73
2022-10-29T09:56:55.741Z,99.48
2022-10-29T09:59:46.000Z,99.42
2022-10-29T10:02:22.694Z,98.76
2022-10-29T10:04:54.243Z,98.96
2022-10-29T10:07:20.816Z,98.34
2022-10-29T10:09:57.562Z,98.30
2022-10-29T10:12:37.480Z,98.19
2022-10-29T10:15:17.207Z,97.74
2022-10-29T10:17:59.579Z,97.93
2022-10-29T10:20:28.162Z,97.95
2022-10-29T10:22:54.874Z,97.25
2022-10-29T10:25:39.061Z,96.89
2022-10-29T10:28:37.683Z,97.12
2022-10-29T10:31:03.982Z,96.94
2022-10-29T10:33:32.601Z,95.90
2022-10-29T10:36:08.308Z,94.57
2022-10-29T10:38:52.650Z,93.50
2022-10-29T10:41:28.882Z,93.73
2022-10-29T10:44:00.423Z,92.92
2022-10-29T10:46:31.726Z,92.81
2022-10-29T10:49:06.476Z,92.03
2022-10-29T10:51:36.146Z,92.30
2022-10-29T10:54:23.287Z,92.31
2022-10-29T10:56:58.797Z,91.84
2022-10-29T10:59:49.993Z,91.08
2022-10-29T11:02:44.629Z,91.31
2022-10-29T11:05:18.431Z,90.47
2022-10-29T11:08:16.230Z,90.72
2022-10-29T11:10:55.021Z,89.96
2022-10-29T11:13:32.829Z,90.57
2022-10-29T11:16:20.907Z,90.20
2022-10-29T11:18:56.716Z,89.58
2022-10-29T11:21:56.788Z,89.42
2022-10-29T11:24:26.268Z,88.83
2022-10-29T11:27:03.057Z,87.21
2022-10-29T11:29:50.460Z,87.55
2022-10-29T11:32:23.671Z,87.49
2022-10-29T11:35:14.878Z,87.89
2022-10-29T11:38:06.907Z,87.51
2022-10-29T11:40:45.874Z,87.04
2022-10-29T11:43:14.666Z,87.55
2022-10-29T11:46:08.862Z,87.96
2022-10-29T11:49:20.468Z,87.60
2022-10-29T11:51:53.707Z,87.66
2022-10-29T11:54:40.531Z,86.82
2022-10-29T11:57:22.063Z,87.65
2022-10-29T12:00:03.879Z,87.17
2022-10-29T12:03:04.967Z,88.15
2022-10-29T12:05:44.225Z,87.66
2022-10-29T12:08:35.031Z,86.97
2022-10-29T12:11:21.380Z,86.42
2022-10-29T12:13:56.137Z,85.81
2022-10-29T12:16:37.258Z,85.84
2022-10-29T12:19:03.671Z,85.82
2022-10-29T12:21:32.978Z,85.36
2022-10-29T12:24:17.694Z,84.85
2022-10-29T12:26:49.123Z,82.88
2022-10-29T12:29:24.328Z,82.79
2022-10-29T12:32:18.572Z,82.41
2022-10-29T12:34:51.432Z,82.33
2022-10-29T12:37:44.275Z,82.62
2022-10-29T12:40:22.502Z,81.84
2022-10-29T12:42:50.534Z,78.67
2022-10-29T12:45:25.056Z,79.96
2022-10-29T12:47:54.813Z,80.24
2022-10-29T12:50:39.784Z,79.62
2022-10-29T12:53:24.937Z,79.56
2022-10-29T12:55:52.231Z,79.95
2022-10-29T12:58:59.602Z,80.53
2022-10-29T13:01:38.185Z,79.59
2022-10-29T13:04:29.376Z,80.19
2022-10-29T13:06:59.797Z,81.36
2022-10-29T13:09:30.166Z,81.14
2022-10-29T13:12:00.244Z,82.20
2022-10-29T13:14:39.059Z,82.63
2022-10-29T13:17:27.430Z,83.09
2022-10-29T13:20:00.596Z,83.89
2022-10-29T13:22:57.285Z,83.99
2022-10-29T13:25:32.941Z,84.04
2022-10-29T13:28:08.592Z,84.08
2022-10-29T13:30:37.713Z,83.83
2022-10-29T13:33:28.868Z,83.24
2022-10-29T13:35:59.129Z,83.54
2022-10-29T13:39:04.361Z,84.26
2022-10-29T13:41:44.508Z,84.24
2022-10-29T13:44:12.710Z,83.65
2022-10-29T13:47:05.084Z,83.80
2022-10-29T13:49:34.416Z,84.17
2022-10-29T13:52:05.781Z,84.35
2022-10-29T13:54:42.427Z,84.75
2022-10-29T13:57:19.337Z,85.13
2022-10-29T13:59:54.636Z,85.38
2022-10-29T14:02:36.824Z,85.26
2022-10-29T14:05:17.192Z,85.82
2022-10-29T14:08:05.531Z,85.66
2022-10-29T14:10:41.019Z,86.07
2022-10-29T14:13:23.512Z,85.90
2022-10-29T14:16:02.148Z,85.80
2022-10-29T14:18:30.804Z,86.50
2022-10-29T14:21:00.343Z,86.27
2022-10-29T14:23:27.960Z,86.90
2022-10-29T14:25:56.961Z,86.91
2022-10-29T14:28:23.332Z,87.03
2022-10-29T14:31:06.796Z,87.37
2022-10-29T14:33:38.225Z,87.79
2022-10-29T14:36:30.695Z,88.14
2022-10-29T14:39:05.838Z,87.98
2022-10-29T14:41:32.547Z,88.32
2022-10-29T14:44:08.641Z,89.23
2022-10-29T14:46:37.292Z,89.36
2022-10-29T14:49:09.899Z,90.09
2022-10-29T14:51:40.649Z,89.70
2022-10-29T14:54:15.362Z,90.00
2022-10-29T14:56:42.084Z,90.20
2022-10-29T14:59:19.169Z,90.71
2022-10-29T15:02:05.783Z,90.23
2022-10-29T15:04:49.815Z,90.79
2022-10-29T15:07:19.289Z,89.91
2022-10-29T15:09:46.684Z,89.51
2022-10-29T15:12:33.975Z,89.97
2022-10-29T15:15:19.056Z,90.41
2022-10-29T15:17:54.431Z,90.82
2022-10-29T15:20:24.530Z,90.97
2022-10-29T15:22:56.489Z,91.19
2022-10-29T15:25:31.176Z,91.65
2022-10-29T15:27:58.875Z,91.10
2022-10-29T15:30:36.264Z,90.80
2022-10-29T15:33:08.521Z,91.29
2022-10-29T15:35:36.561Z,91.59
2022-10-29T15:38:02.915Z,91.59
2022-10-29T15:40:29.589Z,91.87
2022-10-29T15:42:56.275Z,92.29
2022-10-29T15:45:26.346Z,92.03
2022-10-29T15:48:18.235Z,92.35
2022-10-29T15:50:45.841Z,92.31
2022-10-29T15:53:15.892Z,92.41
2022-10-29T15:55:42.531Z,91.55
2022-10-29T15:58:15.187Z,91.38
2022-10-29T16:00:42.333Z,91.39
2022-10-29T16:03:21.367Z,91.18
2022-10-29T16:05:50.432Z,91.30
2022-10-29T16:08:34.804Z,91.49
2022-10-29T16:11:05.196Z,91.34
2022-10-29T16:13:32.736Z,91.54
2022-10-29T16:15:59.226Z,91.12
2022-10-29T16:18:25.650Z,91.43
2022-10-29T16:20:58.149Z,91.60
2022-10-29T16:23:24.789Z,92.02
2022-10-29T16:25:51.333Z,92.04
2022-10-29T16:28:17.939Z,92.08
2022-10-29T16:30:52.801Z,92.04
2022-10-29T16:33:19.957Z,92.24
2022-10-29T16:35:46.400Z,92.21
2022-10-29T16:38:12.874Z,92.31
2022-10-29T16:40:39.460Z,92.10
2022-10-29T16:43:06.056Z,92.64
2022-10-29T16:45:32.499Z,92.57
2022-10-29T16:47:59.384Z,92.86
2022-10-29T16:50:29.558Z,92.97
2022-10-29T16:52:58.451Z,93.49
2022-10-29T16:55:26.047Z,93.24
2022-10-29T16:57:52.875Z,93.18
2022-10-29T17:00:19.747Z,92.99
2022-10-29T17:02:46.214Z,93.18
2022-10-29T17:05:13.525Z,93.03
2022-10-29T17:07:40.642Z,93.29
2022-10-29T17:10:08.224Z,93.38
2022-10-29T17:12:35.924Z,93.07
2022-10-29T17:15:02.665Z,93.62
2022-10-29T17:17:32.244Z,93.15
2022-10-29T17:19:59.071Z,93.62
2022-10-29T17:22:25.533Z,93.47
2022-10-29T17:24:51.989Z,93.31
2022-10-29T17:27:18.490Z,93.57
2022-10-29T17:29:44.942Z,93.66
2022-10-29T17:32:11.440Z,93.66
2022-10-29T17:34:37.898Z,93.73
2022-10-29T17:37:04.575Z,93.62
2022-10-29T17:39:31.027Z,93.92
2022-10-29T17:41:57.748Z,93.98
2022-10-29T17:44:26.404Z,93.98
2022-10-29T17:46:53.498Z,93.77
2022-10-29T17:49:20.357Z,94.03
2022-10-29T17:51:46.975Z,93.80
2022-10-29T17:54:14.882Z,93.72
2022-10-29T17:56:41.956Z,93.68
2022-10-29T17:59:08.458Z,93.81
2022-10-29T18:01:35.345Z,93.96
2022-10-29T18:04:03.039Z,93.68
2022-10-29T18:06:29.641Z,93.75
2022-10-29T18:08:56.550Z,93.88
2022-10-29T18:11:24.759Z,93.91
2022-10-29T18:13:52.217Z,93.94
2022-10-29T18:16:24.183Z,93.97
2022-10-29T18:19:01.994Z,93.83
2022-10-29T18:21:32.711Z,94.02
2022-10-29T18:23:59.237Z,93.99
2022-10-29T18:26:35.025Z,94.06
2022-10-29T18:29:04.640Z,94.01
2022-10-29T18:31:32.140Z,94.06
2022-10-29T18:34:00.698Z,93.91
2022-10-29T18:36:27.910Z,94.01
2022-10-29T18:38:56.031Z,93.94
2022-10-29T18:41:22.848Z,93.70
2022-10-29T18:43:50.469Z,94.07
2022-10-29T18:46:18.094Z,94.05
2022-10-29T18:48:49.102Z,93.99
2022-10-29T18:51:24.409Z,94.01
2022-10-29T18:53:52.886Z,93.99
2022-10-29T18:56:21.654Z,94.07
2022-10-29T18:58:48.966Z,94.22
2022-10-29T19:01:17.995Z,94.17
2022-10-29T19:03:49.655Z,94.06
2022-10-29T19:06:16.563Z,94.31
2022-10-29T19:08:44.299Z,94.34
2022-10-29T19:11:13.501Z,94.49
2022-10-29T19:13:40.150Z,94.69
2022-10-29T19:16:09.638Z,94.68
2022-10-29T19:18:38.275Z,94.87
2022-10-29T19:21:07.426Z,95.16
2022-10-29T19:23:34.261Z,95.11
2022-10-29T19:26:15.645Z,94.98
2022-10-29T19:28:43.011Z,94.99
2022-10-29T19:31:17.786Z,95.05
2022-10-29T19:33:51.847Z,95.04
2022-10-29T19:36:19.651Z,95.28
2022-10-29T19:38:46.799Z,95.62
2022-10-29T19:41:14.030Z,95.45
2022-10-29T19:43:41.098Z,95.71
2022-10-29T19:46:09.430Z,96.01
2022-10-29T19:48:36.420Z,95.88
2022-10-29T19:51:03.097Z,96.20
2022-10-29T19:53:29.943Z,96.27
2022-10-29T19:55:56.569Z,96.87
2022-10-29T19:58:25.623Z,96.42
2022-10-29T20:00:52.575Z,96.31
2022-10-29T20:03:19.670Z,96.14
2022-10-29T20:05:46.750Z,96.71
2022-10-29T20:08:16.071Z,96.73
2022-10-29T20:10:43.634Z,96.27
2022-10-29T20:13:10.444Z,96.37
2022-10-29T20:15:40.101Z,96.51
2022-10-29T20:18:06.657Z,96.57
2022-10-29T20:20:33.289Z,96.52
2022-10-29T20:23:00.567Z,96.10
2022-10-29T20:25:27.740Z,95.90
2022-10-29T20:27:54.228Z,96.05
2022-10-29T20:30:21.695Z,96.00
2022-10-29T20:32:49.151Z,96.30
2022-10-29T20:35:16.598Z,95.99
2022-10-29T20:37:43.095Z,95.82
2022-10-29T20:40:10.341Z,95.91
2022-10-29T20:42:36.762Z,95.88
2022-10-29T20:45:03.278Z,96.28
2022-10-29T20:47:29.781Z,95.96
2022-10-29T20:49:56.266Z,96.14
2022-10-29T20:52:22.852Z,95.89
2022-10-29T20:54:49.319Z,95.93
2022-10-29T20:57:17.843Z,95.97
2022-10-29T20:59:45.321Z,95.73
2022-10-29T21:02:12.375Z,95.43
2022-10-29T21:04:39.167Z,95.56
2022-10-29T21:07:07.608Z,95.73
2022-10-29T21:09:34.150Z,95.58
2022-10-29T21:12:00.666Z,95.54
2022-10-29T21:14:28.235Z,95.56
2022-10-29T21:16:54.674Z,95.59
2022-10-29T21:19:22.790Z,95.34
2022-10-29T21:21:49.383Z,95.31
2022-10-29T21:24:16.669Z,95.26
2022-10-29T21:26:43.273Z,95.34
2022-10-29T21:29:09.769Z,95.22
2022-10-29T21:31:36.228Z,95.38
2022-10-29T21:34:02.816Z,95.23
2022-10-29T21:36:29.455Z,95.45
2022-10-29T21:38:55.913Z,95.20
2022-10-29T21:41:22.366Z,95.54
2022-10-29T21:43:48.787Z,95.54
2022-10-29T21:46:15.328Z,95.33
2022-10-29T21:48:42.038Z,95.37
2022-10-29T21:51:12.898Z,95.58
2022-10-29T21:53:40.005Z,95.53
2022-10-29T21:56:08.382Z,95.42
2022-10-29T21:58:34.823Z,95.55
2022-10-29T22:01:06.435Z,95.63
2022-10-29T22:03:34.312Z,95.62
2022-10-29T22:06:02.374Z,95.37
2022-10-29T22:08:28.826Z,95.91
2022-10-29T22:10:59.725Z,95.67
2022-10-29T22:13:30.766Z,95.60
2022-10-29T22:15:58.310Z,95.13
2022-10-29T22:18:25.617Z,95.55
2022-10-29T22:21:11.092Z,95.42
2022-10-29T22:23:45.780Z,95.56
2022-10-29T22:26:13.977Z,95.61
2022-10-29T22:28:40.432Z,95.38
2022-10-29T22:31:07.030Z,95.59
2022-10-29T22:33:34.422Z,95.53
2022-10-29T22:36:23.689Z,95.65
2022-10-29T22:38:57.459Z,95.60
2022-10-29T22:41:25.969Z,95.96
2022-10-29T22:43:53.160Z,95.68
2022-10-29T22:46:20.768Z,95.87
2022-10-29T22:48:47.609Z,95.82
2022-10-29T22:51:19.731Z,95.91
2022-10-29T22:53:46.549Z,95.74
2022-10-29T22:56:18.377Z,95.75
2022-10-29T22:58:45.220Z,95.83
2022-10-29T23:01:14.619Z,95.63
2022-10-29T23:03:42.215Z,95.60
2022-10-29T23:06:11.096Z,95.74
2022-10-29T23:08:37.806Z,95.71
2022-10-29T23:11:12.449Z,95.60
2022-10-29T23:13:38.954Z,95.61
2022-10-29T23:16:05.999Z,95.92
2022-10-29T23:18:32.437Z,95.44
2022-10-29T23:21:03.991Z,95.59
2022-10-29T23:23:31.652Z,95.82
2022-10-29T23:26:01.872Z,95.74
2022-10-29T23:28:30.045Z,95.82
2022-10-29T23:30:58.023Z,95.83
2022-10-29T23:33:24.652Z,95.93
2022-10-29T23:35:51.384Z,95.96
2022-10-29T23:38:18.138Z,96.07
2022-10-29T23:40:46.240Z,96.20
2022-10-29T23:43:13.118Z,96.31
2022-10-29T23:45:41.130Z,96.24
2022-10-29T23:48:08.678Z,96.12
2022-10-29T23:50:36.103Z,96.15
2022-10-29T23:53:02.590Z,96.02
2022-10-29T23:55:29.082Z,96.41
2022-10-29T23:57:55.643Z,96.34
